Dominia — ICFW — position and weather

sailwx.info

Track history (hours):
 
Tides and Currents Weather Stations Pressure Air Temp Water Temp Dewpoint Dewpoint Depression Visibility Wind Speed Wind Dir Waves Ship Positions

Dominia

Last reported at 2016-Feb-10 06:32 UTC. Time now 2016-Feb-12 03:40 UTC.
Position N 36°14' W 008°04'.

Length 176 m; draft 9.6 m.

Type: Tanker. MMSI: 247273400.

Date/timePositionNaut miles runAvg speedWind from/ knotsBaromVisibWave heightAir tempDewpointWater temp
2016-Feb-10 06:32N 36°14' W 008°04'1414.0
2016-Feb-10 05:32N 36°17' W 008°21'1212.3
2016-Feb-10 04:32N 36°20' W 008°36'1613.4
2016-Feb-10 03:20N 36°24' W 008°55'1113.7
2016-Feb-10 02:32N 36°27' W 009°08'1413.6
2016-Feb-10 01:32N 36°33' W 009°23'1413.5
2016-Feb-10 00:32N 36°43' W 009°35'1211.9
2016-Feb-09 23:32N 36°54' W 009°40'1413.9
2016-Feb-09 22:32N 37°08' W 009°44'1814.0
2016-Feb-09 21:14N 37°25' W 009°49'1013.8
2016-Feb-09 20:32N 37°35' W 009°52'1413.5
2016-Feb-09 19:32N 37°48' W 009°55'1412.9
2016-Feb-09 18:29N 38°01' W 009°59'1212.8
2016-Feb-09 17:33N 38°13' W 010°03'1414.2
2016-Feb-09 16:32N 38°27' W 010°07'1212.3
2016-Feb-09 15:33N 38°39' W 010°11'1312.9
2016-Feb-09 14:33N 38°52' W 010°12'1212.2
2016-Feb-09 13:33N 39°04' W 010°11'1312.7
2016-Feb-09 12:32N 39°17' W 010°12'1313.4
2016-Feb-09 11:32N 39°30' W 010°11'1313.5
2016-Feb-09 10:32N 39°44' W 010°11'1513.4
2016-Feb-09 09:26N 39°58' W 010°11'1212.5
2016-Feb-09 08:29N 40°10' W 010°11'1212.6
2016-Feb-09 07:32N 40°22' W 010°12'1313.1
2016-Feb-09 06:32N 40°35' W 010°12'1312.3
2016-Feb-09 05:29N 40°48' W 010°12'1111.9
2016-Feb-09 04:32N 40°59' W 010°13'1212.4
2016-Feb-09 03:32N 41°12' W 010°13'1312.7
2016-Feb-09 02:32N 41°24' W 010°13'1211.9
2016-Feb-09 01:32N 41°36' W 010°14'1111.0
2016-Feb-09 00:32N 41°47' W 010°14'  
2016-Feb-05 05:26N 50°25' W 000°29'1111.8
2016-Feb-05 04:30N 50°28' W 000°12'1212.6
2016-Feb-05 03:33N 50°31' E 000°06'4013.4
2016-Feb-05 00:33N 50°48' E 001°03'1313.1
2016-Feb-04 23:34N 50°56' E 001°20'1312.5
2016-Feb-04 22:34N 51°05' E 001°33'1211.7
2016-Feb-04 21:33N 51°14' E 001°46'1212.5
2016-Feb-04 20:33N 51°25' E 001°55'1313.4
2016-Feb-04 19:33N 51°35' E 002°08'1414.2
2016-Feb-04 18:33N 51°46' E 002°24'6913.1
2016-Feb-04 13:18N 52°31' E 003°48'811.1
2016-Feb-04 12:33N 52°31' E 004°02'1111.0
2016-Feb-04 11:33N 52°30' E 004°20'8 8.4
2016-Feb-04 10:33N 52°28' E 004°33'2 2.0
2016-Feb-04 09:33N 52°28' E 004°37'3 2.6
2016-Feb-04 08:33N 52°27' E 004°41'5 5.2
2016-Feb-04 07:33N 52°25' E 004°49'1 1.2
2016-Feb-04 06:31N 52°25' E 004°50'0 0.0
2016-Feb-04 05:31N 52°25' E 004°50'0 0.0
2016-Feb-04 04:31N 52°25' E 004°50'0 0.0
2016-Feb-04 03:31N 52°25' E 004°50'0 0.0
2016-Feb-04 02:31N 52°25' E 004°50'0 0.0
2016-Feb-04 01:31N 52°25' E 004°50'0 0.0
2016-Feb-04 00:31N 52°25' E 004°50'0 0.0
2016-Feb-03 23:31N 52°25' E 004°50'0 0.0
2016-Feb-03 22:31N 52°25' E 004°50'0 0.0
2016-Feb-03 21:31N 52°25' E 004°50'0 0.0
2016-Feb-03 20:31N 52°25' E 004°50'0 0.0
2016-Feb-03 19:31N 52°25' E 004°50'0 0.0
2016-Feb-03 18:33N 52°25' E 004°50'2 2.2
2016-Feb-03 17:33N 52°25' E 004°47'1 0.7
2016-Feb-03 16:31N 52°24' E 004°47'0 0.0
2016-Feb-03 15:31N 52°24' E 004°47'0 0.0
2016-Feb-03 14:31N 52°24' E 004°47'0 0.0
2016-Feb-03 13:31N 52°24' E 004°47'0 0.0
2016-Feb-03 12:31N 52°24' E 004°47'0 0.0
2016-Feb-03 11:28N 52°24' E 004°47'0 0.0
2016-Feb-03 10:31N 52°24' E 004°47'0 0.0
2016-Feb-03 09:31N 52°24' E 004°47'0 0.0
2016-Feb-03 08:31N 52°24' E 004°47'0 0.0
2016-Feb-03 07:31N 52°24' E 004°47'0 0.0
2016-Feb-03 06:31N 52°24' E 004°47'0 0.0
2016-Feb-03 05:31N 52°24' E 004°47'0 0.0
2016-Feb-03 04:31N 52°24' E 004°47'0 0.0
2016-Feb-03 03:31N 52°24' E 004°47'0 0.0
2016-Feb-03 02:31N 52°24' E 004°47'0 0.0
2016-Feb-03 01:31N 52°24' E 004°47'0 0.0
2016-Feb-03 00:31N 52°24' E 004°47'0 0.0
2016-Feb-02 23:31N 52°24' E 004°47'0 0.0
2016-Feb-02 22:31N 52°24' E 004°47'0 0.0
2016-Feb-02 21:31N 52°24' E 004°47'0 0.0
2016-Feb-02 20:31N 52°24' E 004°47'0 0.0
2016-Feb-02 19:31N 52°24' E 004°47'0 0.0
2016-Feb-02 18:28N 52°24' E 004°47'0 0.0
2016-Feb-02 17:31N 52°24' E 004°47'0 0.0
2016-Feb-02 16:31N 52°24' E 004°47'0 0.0
2016-Feb-02 15:31N 52°24' E 004°47'0 0.0
2016-Feb-02 14:31N 52°24' E 004°47'0 0.0
2016-Feb-02 13:31N 52°24' E 004°47'0 0.0
2016-Feb-02 12:31N 52°24' E 004°47'0 0.0
2016-Feb-02 11:31N 52°24' E 004°47'0 0.0
2016-Feb-02 10:28N 52°24' E 004°47'0 0.0
2016-Feb-02 09:31N 52°24' E 004°47'0 0.0
2016-Feb-02 08:31N 52°24' E 004°47'0 0.0
2016-Feb-02 07:31N 52°24' E 004°47'0 0.0
2016-Feb-02 06:31N 52°24' E 004°47'0 0.0
2016-Feb-02 05:31N 52°24' E 004°47'0 0.0
2016-Feb-02 04:31N 52°24' E 004°47'0 0.0
2016-Feb-02 03:31N 52°24' E 004°47'0 0.0
2016-Feb-02 02:31N 52°24' E 004°47'0 0.0
2016-Feb-02 01:31N 52°24' E 004°47'0 0.0
2016-Feb-02 00:31N 52°24' E 004°47'0 0.0
2016-Feb-01 23:31N 52°24' E 004°47'0 0.0
2016-Feb-01 22:31N 52°24' E 004°47'0 0.0
2016-Feb-01 21:31N 52°24' E 004°47'0 0.0
2016-Feb-01 20:31N 52°24' E 004°47'0 0.0
2016-Feb-01 19:31N 52°24' E 004°47'0 0.0
2016-Feb-01 18:31N 52°24' E 004°47'0 0.0
2016-Feb-01 17:31N 52°24' E 004°47'0 0.0
2016-Feb-01 16:31N 52°24' E 004°47'0 0.0
2016-Feb-01 15:31N 52°24' E 004°47'0 0.0
2016-Feb-01 14:31N 52°24' E 004°47'0 0.0
2016-Feb-01 13:31N 52°24' E 004°47'0 0.0
2016-Feb-01 12:31N 52°24' E 004°47'0 0.0
2016-Feb-01 11:31N 52°24' E 004°47'0 0.0
2016-Feb-01 10:31N 52°24' E 004°47'0 0.0
2016-Feb-01 09:31N 52°24' E 004°47'0 0.0
2016-Feb-01 08:31N 52°24' E 004°47'0 0.0
2016-Feb-01 07:31N 52°24' E 004°47'0 0.0
2016-Feb-01 06:31N 52°24' E 004°47'0 0.0
2016-Feb-01 05:31N 52°24' E 004°47'0 0.0
2016-Feb-01 04:31N 52°24' E 004°47'0 0.0
2016-Feb-01 03:31N 52°24' E 004°47'0 0.0
2016-Feb-01 02:31N 52°24' E 004°47'0 0.0
2016-Feb-01 01:31N 52°24' E 004°47'0 0.0
2016-Feb-01 00:31N 52°24' E 004°47'0 0.0
2016-Jan-31 23:31N 52°24' E 004°47'0 0.0
2016-Jan-31 22:31N 52°24' E 004°47'0 0.0
2016-Jan-31 21:31N 52°24' E 004°47'0 0.0
2016-Jan-31 20:31N 52°24' E 004°47'0 0.0
2016-Jan-31 19:28N 52°24' E 004°47'0 0.0
2016-Jan-31 18:31N 52°24' E 004°47'0 0.0
2016-Jan-31 17:31N 52°24' E 004°47'0 0.0
2016-Jan-31 16:31N 52°24' E 004°47'0 0.0
2016-Jan-31 15:31N 52°24' E 004°47'0 0.0
2016-Jan-31 14:31N 52°24' E 004°47'0 0.0
2016-Jan-31 13:31N 52°24' E 004°47'0 0.0
2016-Jan-31 12:31N 52°24' E 004°47'0 0.0
2016-Jan-31 11:31N 52°24' E 004°47'0 0.0
2016-Jan-31 10:31N 52°24' E 004°47'0 0.0
2016-Jan-31 09:31N 52°24' E 004°47'0 0.0
2016-Jan-31 08:31N 52°24' E 004°47'0 0.0
2016-Jan-31 07:31N 52°24' E 004°47'  
Track history (hours):
 
Tides and Currents Weather Stations Pressure Air Temp Water Temp Dewpoint Dewpoint Depression Visibility Wind Speed Wind Dir Waves Ship Positions

Dominia

Last reported at 2016-Feb-10 06:32 UTC. Time now 2016-Feb-12 03:40 UTC.
Position N 36°14' W 008°04'.

Length 176 m; draft 9.6 m.

Type: Tanker. MMSI: 247273400.

Date/timePositionNaut miles runAvg speedWind from/ knotsBaromVisibWave heightAir tempDewpointWater temp
2016-Feb-10 06:32N 36°14' W 008°04'1414.0
2016-Feb-10 05:32N 36°17' W 008°21'1212.3
2016-Feb-10 04:32N 36°20' W 008°36'1613.4
2016-Feb-10 03:20N 36°24' W 008°55'1113.7
2016-Feb-10 02:32N 36°27' W 009°08'1413.6
2016-Feb-10 01:32N 36°33' W 009°23'1413.5
2016-Feb-10 00:32N 36°43' W 009°35'1211.9
2016-Feb-09 23:32N 36°54' W 009°40'1413.9
2016-Feb-09 22:32N 37°08' W 009°44'1814.0
2016-Feb-09 21:14N 37°25' W 009°49'1013.8
2016-Feb-09 20:32N 37°35' W 009°52'1413.5
2016-Feb-09 19:32N 37°48' W 009°55'1412.9
2016-Feb-09 18:29N 38°01' W 009°59'1212.8
2016-Feb-09 17:33N 38°13' W 010°03'1414.2
2016-Feb-09 16:32N 38°27' W 010°07'1212.3
2016-Feb-09 15:33N 38°39' W 010°11'1312.9
2016-Feb-09 14:33N 38°52' W 010°12'1212.2
2016-Feb-09 13:33N 39°04' W 010°11'1312.7
2016-Feb-09 12:32N 39°17' W 010°12'1313.4
2016-Feb-09 11:32N 39°30' W 010°11'1313.5
2016-Feb-09 10:32N 39°44' W 010°11'1513.4
2016-Feb-09 09:26N 39°58' W 010°11'1212.5
2016-Feb-09 08:29N 40°10' W 010°11'1212.6
2016-Feb-09 07:32N 40°22' W 010°12'1313.1
2016-Feb-09 06:32N 40°35' W 010°12'1312.3
2016-Feb-09 05:29N 40°48' W 010°12'1111.9
2016-Feb-09 04:32N 40°59' W 010°13'1212.4
2016-Feb-09 03:32N 41°12' W 010°13'1312.7
2016-Feb-09 02:32N 41°24' W 010°13'1211.9
2016-Feb-09 01:32N 41°36' W 010°14'1111.0
2016-Feb-09 00:32N 41°47' W 010°14'  
2016-Feb-05 05:26N 50°25' W 000°29'1111.8
2016-Feb-05 04:30N 50°28' W 000°12'1212.6
2016-Feb-05 03:33N 50°31' E 000°06'4013.4
2016-Feb-05 00:33N 50°48' E 001°03'1313.1
2016-Feb-04 23:34N 50°56' E 001°20'1312.5
2016-Feb-04 22:34N 51°05' E 001°33'1211.7
2016-Feb-04 21:33N 51°14' E 001°46'1212.5
2016-Feb-04 20:33N 51°25' E 001°55'1313.4
2016-Feb-04 19:33N 51°35' E 002°08'1414.2
2016-Feb-04 18:33N 51°46' E 002°24'6913.1
2016-Feb-04 13:18N 52°31' E 003°48'811.1
2016-Feb-04 12:33N 52°31' E 004°02'1111.0
2016-Feb-04 11:33N 52°30' E 004°20'8 8.4
2016-Feb-04 10:33N 52°28' E 004°33'2 2.0
2016-Feb-04 09:33N 52°28' E 004°37'3 2.6
2016-Feb-04 08:33N 52°27' E 004°41'5 5.2
2016-Feb-04 07:33N 52°25' E 004°49'1 1.2
2016-Feb-04 06:31N 52°25' E 004°50'0 0.0
2016-Feb-04 05:31N 52°25' E 004°50'0 0.0
2016-Feb-04 04:31N 52°25' E 004°50'0 0.0
2016-Feb-04 03:31N 52°25' E 004°50'0 0.0
2016-Feb-04 02:31N 52°25' E 004°50'0 0.0
2016-Feb-04 01:31N 52°25' E 004°50'0 0.0
2016-Feb-04 00:31N 52°25' E 004°50'0 0.0
2016-Feb-03 23:31N 52°25' E 004°50'0 0.0
2016-Feb-03 22:31N 52°25' E 004°50'0 0.0
2016-Feb-03 21:31N 52°25' E 004°50'0 0.0
2016-Feb-03 20:31N 52°25' E 004°50'0 0.0
2016-Feb-03 19:31N 52°25' E 004°50'0 0.0
2016-Feb-03 18:33N 52°25' E 004°50'2 2.2
2016-Feb-03 17:33N 52°25' E 004°47'1 0.7
2016-Feb-03 16:31N 52°24' E 004°47'0 0.0
2016-Feb-03 15:31N 52°24' E 004°47'0 0.0
2016-Feb-03 14:31N 52°24' E 004°47'0 0.0
2016-Feb-03 13:31N 52°24' E 004°47'0 0.0
2016-Feb-03 12:31N 52°24' E 004°47'0 0.0
2016-Feb-03 11:28N 52°24' E 004°47'0 0.0
2016-Feb-03 10:31N 52°24' E 004°47'0 0.0
2016-Feb-03 09:31N 52°24' E 004°47'0 0.0
2016-Feb-03 08:31N 52°24' E 004°47'0 0.0
2016-Feb-03 07:31N 52°24' E 004°47'0 0.0
2016-Feb-03 06:31N 52°24' E 004°47'0 0.0
2016-Feb-03 05:31N 52°24' E 004°47'0 0.0
2016-Feb-03 04:31N 52°24' E 004°47'0 0.0
2016-Feb-03 03:31N 52°24' E 004°47'0 0.0
2016-Feb-03 02:31N 52°24' E 004°47'0 0.0
2016-Feb-03 01:31N 52°24' E 004°47'0 0.0
2016-Feb-03 00:31N 52°24' E 004°47'0 0.0
2016-Feb-02 23:31N 52°24' E 004°47'0 0.0
2016-Feb-02 22:31N 52°24' E 004°47'0 0.0
2016-Feb-02 21:31N 52°24' E 004°47'0 0.0
2016-Feb-02 20:31N 52°24' E 004°47'0 0.0
2016-Feb-02 19:31N 52°24' E 004°47'0 0.0
2016-Feb-02 18:28N 52°24' E 004°47'0 0.0
2016-Feb-02 17:31N 52°24' E 004°47'0 0.0
2016-Feb-02 16:31N 52°24' E 004°47'0 0.0
2016-Feb-02 15:31N 52°24' E 004°47'0 0.0
2016-Feb-02 14:31N 52°24' E 004°47'0 0.0
2016-Feb-02 13:31N 52°24' E 004°47'0 0.0
2016-Feb-02 12:31N 52°24' E 004°47'0 0.0
2016-Feb-02 11:31N 52°24' E 004°47'0 0.0
2016-Feb-02 10:28N 52°24' E 004°47'0 0.0
2016-Feb-02 09:31N 52°24' E 004°47'0 0.0
2016-Feb-02 08:31N 52°24' E 004°47'0 0.0
2016-Feb-02 07:31N 52°24' E 004°47'0 0.0
2016-Feb-02 06:31N 52°24' E 004°47'0 0.0
2016-Feb-02 05:31N 52°24' E 004°47'0 0.0
2016-Feb-02 04:31N 52°24' E 004°47'0 0.0
2016-Feb-02 03:31N 52°24' E 004°47'0 0.0
2016-Feb-02 02:31N 52°24' E 004°47'0 0.0
2016-Feb-02 01:31N 52°24' E 004°47'0 0.0
2016-Feb-02 00:31N 52°24' E 004°47'0 0.0
2016-Feb-01 23:31N 52°24' E 004°47'0 0.0
2016-Feb-01 22:31N 52°24' E 004°47'0 0.0
2016-Feb-01 21:31N 52°24' E 004°47'0 0.0
2016-Feb-01 20:31N 52°24' E 004°47'0 0.0
2016-Feb-01 19:31N 52°24' E 004°47'0 0.0
2016-Feb-01 18:31N 52°24' E 004°47'0 0.0
2016-Feb-01 17:31N 52°24' E 004°47'0 0.0
2016-Feb-01 16:31N 52°24' E 004°47'0 0.0
2016-Feb-01 15:31N 52°24' E 004°47'0 0.0
2016-Feb-01 14:31N 52°24' E 004°47'0 0.0
2016-Feb-01 13:31N 52°24' E 004°47'0 0.0
2016-Feb-01 12:31N 52°24' E 004°47'0 0.0
2016-Feb-01 11:31N 52°24' E 004°47'0 0.0
2016-Feb-01 10:31N 52°24' E 004°47'0 0.0
2016-Feb-01 09:31N 52°24' E 004°47'0 0.0
2016-Feb-01 08:31N 52°24' E 004°47'0 0.0
2016-Feb-01 07:31N 52°24' E 004°47'0 0.0
2016-Feb-01 06:31N 52°24' E 004°47'0 0.0
2016-Feb-01 05:31N 52°24' E 004°47'0 0.0
2016-Feb-01 04:31N 52°24' E 004°47'0 0.0
2016-Feb-01 03:31N 52°24' E 004°47'0 0.0
2016-Feb-01 02:31N 52°24' E 004°47'0 0.0
2016-Feb-01 01:31N 52°24' E 004°47'0 0.0
2016-Feb-01 00:31N 52°24' E 004°47'0 0.0
2016-Jan-31 23:31N 52°24' E 004°47'0 0.0
2016-Jan-31 22:31N 52°24' E 004°47'0 0.0
2016-Jan-31 21:31N 52°24' E 004°47'0 0.0
2016-Jan-31 20:31N 52°24' E 004°47'0 0.0
2016-Jan-31 19:28N 52°24' E 004°47'0 0.0
2016-Jan-31 18:31N 52°24' E 004°47'0 0.0
2016-Jan-31 17:31N 52°24' E 004°47'0 0.0
2016-Jan-31 16:31N 52°24' E 004°47'0 0.0
2016-Jan-31 15:31N 52°24' E 004°47'0 0.0
2016-Jan-31 14:31N 52°24' E 004°47'0 0.0
2016-Jan-31 13:31N 52°24' E 004°47'0 0.0
2016-Jan-31 12:31N 52°24' E 004°47'0 0.0
2016-Jan-31 11:31N 52°24' E 004°47'0 0.0
2016-Jan-31 10:31N 52°24' E 004°47'0 0.0
2016-Jan-31 09:31N 52°24' E 004°47'0 0.0
2016-Jan-31 08:31N 52°24' E 004°47'0 0.0
2016-Jan-31 07:31N 52°24' E 004°47'  

Dump ship's entire track history